createdAt,value
2022-07-31T00:02:12.319Z,91.77
2022-07-31T00:11:49.383Z,91.54
2022-07-31T00:21:26.753Z,92.6
2022-07-31T00:31:04.203Z,92.13
2022-07-31T00:40:41.430Z,92.46
2022-07-31T00:50:18.655Z,92.45
2022-07-31T00:59:55.797Z,91.88
2022-07-31T01:09:32.846Z,91.93
2022-07-31T01:19:10.036Z,91.66
2022-07-31T01:28:47.279Z,91.77
2022-07-31T01:48:01.464Z,92.17
2022-07-31T01:57:38.413Z,92.26
2022-07-31T02:16:52.520Z,91.89
2022-07-31T02:26:29.751Z,91.93
2022-07-31T02:36:06.925Z,92.26
2022-07-31T02:45:44.094Z,92.18
2022-07-31T02:55:21.112Z,92.24
2022-07-31T03:04:58.344Z,92.28
2022-07-31T03:14:35.699Z,92.29
2022-07-31T03:24:12.666Z,92.21
2022-07-31T03:33:49.659Z,92.4
2022-07-31T03:43:26.115Z,92.49
2022-07-31T03:53:03.304Z,92.09
2022-07-31T04:02:40.648Z,91.83
2022-07-31T04:12:17.898Z,91.08
2022-07-31T04:21:55.944Z,90.55
2022-07-31T04:31:34.036Z,89.66
2022-07-31T04:41:11.875Z,88.8
2022-07-31T04:50:49.515Z,87.62
2022-07-31T05:00:27.126Z,87.15
2022-07-31T05:10:04.680Z,86.35
2022-07-31T05:19:42.190Z,85.26
2022-07-31T05:29:19.721Z,83.76
2022-07-31T05:38:57.224Z,81.94
2022-07-31T05:48:34.960Z,80.45
2022-07-31T05:58:16.737Z,79.51
2022-07-31T06:07:52.238Z,77.91
2022-07-31T06:17:40.501Z,76.31
2022-07-31T06:27:09.308Z,75.13
2022-07-31T06:36:45.951Z,73.72
2022-07-31T06:46:24.199Z,72.57
2022-07-31T06:56:03.117Z,70.74
2022-07-31T07:05:45.139Z,69.79
2022-07-31T07:15:20.257Z,67.76
2022-07-31T07:24:58.523Z,67.47
2022-07-31T07:34:35.052Z,67.86
2022-07-31T07:44:11.009Z,69.13
2022-07-31T07:53:47.853Z,66.57
2022-07-31T08:03:48.083Z,63.25
2022-07-31T08:13:08.952Z,58.68
2022-07-31T08:22:50.268Z,56.51
2022-07-31T08:32:30.338Z,53.73
2022-07-31T08:42:10.223Z,52.6
2022-07-31T08:51:50.632Z,49.98
2022-07-31T09:01:28.409Z,48.91
2022-07-31T09:11:06.394Z,48.05
2022-07-31T09:20:40.702Z,47.62
2022-07-31T09:30:19.065Z,44.88
2022-07-31T09:40:07.911Z,41.57
2022-07-31T09:49:49.299Z,38.86
2022-07-31T09:59:26.554Z,36.26
2022-07-31T10:09:05.294Z,34.71
2022-07-31T10:18:44.482Z,36.84
2022-07-31T10:28:27.033Z,34.93
2022-07-31T10:38:02.058Z,32.55
2022-07-31T10:47:40.908Z,34.1
2022-07-31T10:57:24.610Z,34.99
2022-07-31T11:07:07.834Z,34.3
2022-07-31T11:16:51.864Z,31.76
2022-07-31T11:35:59.342Z,32.41
2022-07-31T11:45:40.950Z,32
2022-07-31T11:55:24.740Z,31.84
2022-07-31T12:05:08.280Z,30.23
2022-07-31T12:14:43.643Z,30.22
2022-07-31T12:24:07.445Z,31.96
2022-07-31T12:43:32.101Z,28.93
2022-07-31T12:52:58.025Z,31.67
2022-07-31T13:02:37.478Z,30.11
2022-07-31T13:21:48.789Z,31.11
2022-07-31T13:31:16.535Z,31.93
2022-07-31T13:40:52.729Z,32.49
2022-07-31T13:50:42.639Z,29.63
2022-07-31T14:00:19.030Z,30.2
2022-07-31T14:10:10.683Z,29.03
2022-07-31T14:19:39.519Z,32.67
2022-07-31T14:29:11.384Z,34.08
2022-07-31T14:38:48.911Z,33.86
2022-07-31T14:48:27.503Z,32.85
2022-07-31T14:58:09.078Z,34.02
2022-07-31T15:17:22.004Z,34.15
2022-07-31T15:26:55.369Z,35.9
2022-07-31T15:36:30.613Z,36.55
2022-07-31T15:46:07.151Z,37.9
2022-07-31T16:05:21.871Z,39.5
2022-07-31T16:14:57.709Z,38.82
2022-07-31T16:24:35.403Z,38.47
2022-07-31T16:43:51.752Z,39.74
2022-07-31T17:03:04.923Z,39.92
2022-07-31T17:12:42.838Z,41.91
2022-07-31T17:22:19.973Z,46.74
2022-07-31T17:31:55.976Z,55.4
2022-07-31T17:51:07.515Z,61.33
2022-07-31T18:00:44.043Z,63.44
2022-07-31T18:10:27.914Z,64.01
2022-07-31T18:19:58.271Z,65.24
2022-07-31T18:29:34.966Z,65.88
2022-07-31T18:39:11.388Z,66.47
2022-07-31T18:48:54.628Z,67.09
2022-07-31T18:58:25.959Z,70.66
2022-07-31T19:08:01.440Z,72.38
2022-07-31T19:17:42.113Z,74.5
2022-07-31T19:27:15.638Z,75.64
2022-07-31T19:36:53.476Z,77.25
2022-07-31T19:46:29.352Z,77.5
2022-07-31T19:56:06.798Z,76.58
2022-07-31T20:05:43.756Z,76.89
2022-07-31T20:15:20.898Z,75.01
2022-07-31T20:24:58.352Z,71.44
2022-07-31T20:34:35.881Z,70.4
2022-07-31T20:44:12.997Z,67.66
2022-07-31T20:53:50.634Z,65.43
2022-07-31T21:03:28.513Z,64.15
2022-07-31T21:22:43.498Z,64.62
2022-07-31T21:32:20.568Z,66.89
2022-07-31T21:41:57.936Z,69.41
2022-07-31T21:51:34.926Z,72.61
2022-07-31T22:01:11.923Z,73.72
2022-07-31T22:10:48.858Z,73.7
2022-07-31T22:20:25.963Z,73.74
2022-07-31T22:30:02.774Z,74.36
2022-07-31T22:39:39.688Z,75.48
2022-07-31T22:49:16.577Z,76.56
2022-07-31T22:58:53.689Z,77.06
2022-07-31T23:18:07.321Z,78.47
2022-07-31T23:27:44.649Z,77.42
2022-07-31T23:37:22.190Z,77.31
2022-07-31T23:46:59.990Z,76.61
2022-07-31T23:56:37.758Z,75.35
